Terminal Aerodrome Forecast
Issued by NWS

Home | Current Version | Previous Version | Text Only | Print | Product List | Glossary On
Versions: 1 2 3 4 5 6 7 8 9 10 11 12 13 14 15 16
000
FTUS43 KSGF 300520
TAFBBG
TAF
KBBG 300520Z 3006/3106 VRB03KT P6SM SCT250
     FM301100 VRB03KT P6SM SCT250 PROB30 3015/3019 4SM -TSRA
      BKN250CB
     FM301900 16005KT P6SM VCTS SCT050CB BKN250
     FM310400 VRB03KT P6SM SCT200=

USA.gov is the U.S. government's official web portal to all federal, state and local government web resources and services.